sensor_id;sensor_type;location;lat;lon;timestamp;P1;durP1;ratioP1;P2;durP2;ratioP2
16654;SDS011;8441;51.344;7.022;2023-02-28T00:00:13;0.57;;;0.57;;
16654;SDS011;8441;51.344;7.022;2023-02-28T00:02:41;0.50;;;0.50;;
16654;SDS011;8441;51.344;7.022;2023-02-28T00:05:10;0.50;;;0.50;;
16654;SDS011;8441;51.344;7.022;2023-02-28T00:07:41;0.70;;;0.70;;
16654;SDS011;8441;51.344;7.022;2023-02-28T00:10:09;0.50;;;0.50;;
16654;SDS011;8441;51.344;7.022;2023-02-28T00:12:37;0.50;;;0.50;;
16654;SDS011;8441;51.344;7.022;2023-02-28T00:15:05;0.53;;;0.53;;
16654;SDS011;8441;51.344;7.022;2023-02-28T00:17:34;0.50;;;0.50;;
16654;SDS011;8441;51.344;7.022;2023-02-28T00:20:02;0.70;;;0.70;;
16654;SDS011;8441;51.344;7.022;2023-02-28T00:22:33;0.60;;;0.60;;
16654;SDS011;8441;51.344;7.022;2023-02-28T00:25:02;0.40;;;0.40;;
16654;SDS011;8441;51.344;7.022;2023-02-28T00:27:30;0.50;;;0.50;;
16654;SDS011;8441;51.344;7.022;2023-02-28T00:29:57;0.60;;;0.60;;
16654;SDS011;8441;51.344;7.022;2023-02-28T00:32:24;0.50;;;0.50;;
16654;SDS011;8441;51.344;7.022;2023-02-28T00:34:51;0.60;;;0.60;;
16654;SDS011;8441;51.344;7.022;2023-02-28T00:37:19;0.70;;;0.70;;
16654;SDS011;8441;51.344;7.022;2023-02-28T00:39:46;0.50;;;0.50;;
16654;SDS011;8441;51.344;7.022;2023-02-28T00:42:14;0.60;;;0.60;;
16654;SDS011;8441;51.344;7.022;2023-02-28T00:44:41;0.60;;;0.60;;
16654;SDS011;8441;51.344;7.022;2023-02-28T00:47:09;0.57;;;0.57;;
16654;SDS011;8441;51.344;7.022;2023-02-28T00:49:36;0.60;;;0.60;;
16654;SDS011;8441;51.344;7.022;2023-02-28T00:52:03;0.60;;;0.60;;
16654;SDS011;8441;51.344;7.022;2023-02-28T00:54:30;0.50;;;0.50;;
16654;SDS011;8441;51.344;7.022;2023-02-28T00:56:58;0.60;;;0.60;;
16654;SDS011;8441;51.344;7.022;2023-02-28T00:59:26;0.60;;;0.60;;
16654;SDS011;8441;51.344;7.022;2023-02-28T01:01:53;0.50;;;0.50;;
16654;SDS011;8441;51.344;7.022;2023-02-28T01:04:21;0.50;;;0.50;;
16654;SDS011;8441;51.344;7.022;2023-02-28T01:06:48;0.60;;;0.60;;
16654;SDS011;8441;51.344;7.022;2023-02-28T01:09:15;0.60;;;0.60;;
16654;SDS011;8441;51.344;7.022;2023-02-28T01:11:42;0.57;;;0.57;;
16654;SDS011;8441;51.344;7.022;2023-02-28T01:14:11;0.50;;;0.50;;
16654;SDS011;8441;51.344;7.022;2023-02-28T01:16:45;0.60;;;0.60;;
16654;SDS011;8441;51.344;7.022;2023-02-28T01:19:13;0.67;;;0.67;;
16654;SDS011;8441;51.344;7.022;2023-02-28T01:21:40;0.60;;;0.60;;
16654;SDS011;8441;51.344;7.022;2023-02-28T01:24:07;0.50;;;0.50;;
16654;SDS011;8441;51.344;7.022;2023-02-28T01:26:34;0.60;;;0.60;;
16654;SDS011;8441;51.344;7.022;2023-02-28T01:29:01;0.50;;;0.50;;
16654;SDS011;8441;51.344;7.022;2023-02-28T01:31:28;0.60;;;0.60;;
16654;SDS011;8441;51.344;7.022;2023-02-28T01:33:57;0.60;;;0.60;;
16654;SDS011;8441;51.344;7.022;2023-02-28T01:36:24;0.67;;;0.67;;
16654;SDS011;8441;51.344;7.022;2023-02-28T01:38:52;0.57;;;0.57;;
16654;SDS011;8441;51.344;7.022;2023-02-28T01:41:20;0.60;;;0.60;;
16654;SDS011;8441;51.344;7.022;2023-02-28T01:43:56;0.60;;;0.60;;
16654;SDS011;8441;51.344;7.022;2023-02-28T01:46:28;0.50;;;0.50;;
16654;SDS011;8441;51.344;7.022;2023-02-28T01:48:58;0.70;;;0.70;;
16654;SDS011;8441;51.344;7.022;2023-02-28T01:51:30;0.57;;;0.57;;
16654;SDS011;8441;51.344;7.022;2023-02-28T01:54:02;0.50;;;0.50;;
16654;SDS011;8441;51.344;7.022;2023-02-28T01:56:38;0.60;;;0.60;;
16654;SDS011;8441;51.344;7.022;2023-02-28T01:59:08;0.60;;;0.60;;
16654;SDS011;8441;51.344;7.022;2023-02-28T02:01:36;0.50;;;0.50;;
16654;SDS011;8441;51.344;7.022;2023-02-28T02:04:05;0.60;;;0.60;;
16654;SDS011;8441;51.344;7.022;2023-02-28T02:06:34;0.60;;;0.60;;
16654;SDS011;8441;51.344;7.022;2023-02-28T02:09:03;0.57;;;0.57;;
16654;SDS011;8441;51.344;7.022;2023-02-28T02:11:31;0.60;;;0.60;;
16654;SDS011;8441;51.344;7.022;2023-02-28T02:14:10;0.57;;;0.57;;
16654;SDS011;8441;51.344;7.022;2023-02-28T02:16:56;0.60;;;0.60;;
16654;SDS011;8441;51.344;7.022;2023-02-28T02:19:42;0.60;;;0.60;;
16654;SDS011;8441;51.344;7.022;2023-02-28T02:22:37;0.60;;;0.60;;
16654;SDS011;8441;51.344;7.022;2023-02-28T02:25:28;0.60;;;0.60;;
16654;SDS011;8441;51.344;7.022;2023-02-28T02:37:22;0.60;;;0.60;;
16654;SDS011;8441;51.344;7.022;2023-02-28T02:39:55;0.70;;;0.70;;
16654;SDS011;8441;51.344;7.022;2023-02-28T02:42:27;0.70;;;0.70;;
16654;SDS011;8441;51.344;7.022;2023-02-28T02:44:58;0.60;;;0.60;;
16654;SDS011;8441;51.344;7.022;2023-02-28T02:47:29;0.60;;;0.60;;
16654;SDS011;8441;51.344;7.022;2023-02-28T02:49:59;0.63;;;0.63;;
16654;SDS011;8441;51.344;7.022;2023-02-28T02:52:34;0.70;;;0.70;;
16654;SDS011;8441;51.344;7.022;2023-02-28T02:55:05;0.67;;;0.67;;
16654;SDS011;8441;51.344;7.022;2023-02-28T02:57:38;0.67;;;0.67;;
16654;SDS011;8441;51.344;7.022;2023-02-28T03:00:10;0.60;;;0.60;;
16654;SDS011;8441;51.344;7.022;2023-02-28T03:02:39;0.60;;;0.60;;
16654;SDS011;8441;51.344;7.022;2023-02-28T03:05:08;0.50;;;0.50;;
16654;SDS011;8441;51.344;7.022;2023-02-28T03:07:43;0.70;;;0.70;;
16654;SDS011;8441;51.344;7.022;2023-02-28T03:13:18;0.50;;;0.50;;
16654;SDS011;8441;51.344;7.022;2023-02-28T03:16:03;0.60;;;0.60;;
16654;SDS011;8441;51.344;7.022;2023-02-28T03:18:53;0.70;;;0.70;;
16654;SDS011;8441;51.344;7.022;2023-02-28T03:21:30;0.70;;;0.70;;
16654;SDS011;8441;51.344;7.022;2023-02-28T03:24:05;0.50;;;0.50;;
16654;SDS011;8441;51.344;7.022;2023-02-28T03:26:34;0.50;;;0.50;;
16654;SDS011;8441;51.344;7.022;2023-02-28T03:29:07;0.70;;;0.70;;
16654;SDS011;8441;51.344;7.022;2023-02-28T03:31:43;0.70;;;0.70;;
16654;SDS011;8441;51.344;7.022;2023-02-28T03:34:16;0.60;;;0.60;;
16654;SDS011;8441;51.344;7.022;2023-02-28T03:36:50;0.57;;;0.57;;
16654;SDS011;8441;51.344;7.022;2023-02-28T03:39:24;0.70;;;0.70;;
16654;SDS011;8441;51.344;7.022;2023-02-28T03:41:57;0.70;;;0.70;;
16654;SDS011;8441;51.344;7.022;2023-02-28T03:44:28;0.70;;;0.70;;
16654;SDS011;8441;51.344;7.022;2023-02-28T03:46:59;0.70;;;0.70;;
16654;SDS011;8441;51.344;7.022;2023-02-28T03:49:31;0.60;;;0.60;;
16654;SDS011;8441;51.344;7.022;2023-02-28T03:52:02;0.60;;;0.60;;
16654;SDS011;8441;51.344;7.022;2023-02-28T03:54:34;0.53;;;0.53;;
16654;SDS011;8441;51.344;7.022;2023-02-28T03:57:10;0.60;;;0.60;;
16654;SDS011;8441;51.344;7.022;2023-02-28T03:59:42;0.70;;;0.70;;
16654;SDS011;8441;51.344;7.022;2023-02-28T04:02:13;0.70;;;0.70;;
16654;SDS011;8441;51.344;7.022;2023-02-28T04:04:41;0.70;;;0.70;;
16654;SDS011;8441;51.344;7.022;2023-02-28T04:07:13;0.50;;;0.50;;
16654;SDS011;8441;51.344;7.022;2023-02-28T04:09:42;0.60;;;0.60;;
16654;SDS011;8441;51.344;7.022;2023-02-28T04:12:10;0.60;;;0.60;;
16654;SDS011;8441;51.344;7.022;2023-02-28T04:14:37;0.50;;;0.50;;
16654;SDS011;8441;51.344;7.022;2023-02-28T04:17:04;0.60;;;0.60;;
16654;SDS011;8441;51.344;7.022;2023-02-28T04:19:31;0.77;;;0.77;;
16654;SDS011;8441;51.344;7.022;2023-02-28T04:21:58;0.70;;;0.70;;
16654;SDS011;8441;51.344;7.022;2023-02-28T04:24:26;0.70;;;0.70;;
16654;SDS011;8441;51.344;7.022;2023-02-28T04:26:57;0.60;;;0.60;;
16654;SDS011;8441;51.344;7.022;2023-02-28T04:29:25;0.77;;;0.77;;
16654;SDS011;8441;51.344;7.022;2023-02-28T04:31:53;0.60;;;0.60;;
16654;SDS011;8441;51.344;7.022;2023-02-28T04:34:22;0.73;;;0.73;;
16654;SDS011;8441;51.344;7.022;2023-02-28T04:36:50;0.70;;;0.70;;
16654;SDS011;8441;51.344;7.022;2023-02-28T04:39:19;0.60;;;0.60;;
16654;SDS011;8441;51.344;7.022;2023-02-28T04:41:47;0.57;;;0.57;;
16654;SDS011;8441;51.344;7.022;2023-02-28T04:44:16;0.70;;;0.70;;
16654;SDS011;8441;51.344;7.022;2023-02-28T04:46:43;0.70;;;0.70;;
16654;SDS011;8441;51.344;7.022;2023-02-28T04:49:11;0.70;;;0.70;;
16654;SDS011;8441;51.344;7.022;2023-02-28T04:51:39;0.70;;;0.70;;
16654;SDS011;8441;51.344;7.022;2023-02-28T04:54:06;0.70;;;0.70;;
16654;SDS011;8441;51.344;7.022;2023-02-28T04:56:34;0.50;;;0.50;;
16654;SDS011;8441;51.344;7.022;2023-02-28T04:59:02;0.60;;;0.60;;
16654;SDS011;8441;51.344;7.022;2023-02-28T05:01:31;0.60;;;0.60;;
16654;SDS011;8441;51.344;7.022;2023-02-28T05:04:00;0.63;;;0.63;;
16654;SDS011;8441;51.344;7.022;2023-02-28T05:06:29;0.60;;;0.60;;
16654;SDS011;8441;51.344;7.022;2023-02-28T05:08:58;0.50;;;0.50;;
16654;SDS011;8441;51.344;7.022;2023-02-28T05:11:26;0.70;;;0.70;;
16654;SDS011;8441;51.344;7.022;2023-02-28T05:13:59;0.60;;;0.60;;
16654;SDS011;8441;51.344;7.022;2023-02-28T05:16:27;0.83;;;0.83;;
16654;SDS011;8441;51.344;7.022;2023-02-28T05:18:56;0.80;;;0.80;;
16654;SDS011;8441;51.344;7.022;2023-02-28T05:21:24;0.60;;;0.60;;
16654;SDS011;8441;51.344;7.022;2023-02-28T05:23:54;0.70;;;0.70;;
16654;SDS011;8441;51.344;7.022;2023-02-28T05:26:22;0.70;;;0.70;;
16654;SDS011;8441;51.344;7.022;2023-02-28T05:28:51;0.60;;;0.60;;
16654;SDS011;8441;51.344;7.022;2023-02-28T05:31:18;0.60;;;0.60;;
16654;SDS011;8441;51.344;7.022;2023-02-28T05:33:46;0.77;;;0.77;;
16654;SDS011;8441;51.344;7.022;2023-02-28T05:36:14;0.70;;;0.70;;
16654;SDS011;8441;51.344;7.022;2023-02-28T05:38:41;0.77;;;0.77;;
16654;SDS011;8441;51.344;7.022;2023-02-28T05:41:09;0.67;;;0.67;;
16654;SDS011;8441;51.344;7.022;2023-02-28T05:43:37;0.60;;;0.60;;
16654;SDS011;8441;51.344;7.022;2023-02-28T05:46:04;0.60;;;0.60;;
16654;SDS011;8441;51.344;7.022;2023-02-28T05:48:32;0.67;;;0.67;;
16654;SDS011;8441;51.344;7.022;2023-02-28T05:51:00;0.70;;;0.70;;
16654;SDS011;8441;51.344;7.022;2023-02-28T05:53:29;0.70;;;0.70;;
16654;SDS011;8441;51.344;7.022;2023-02-28T05:55:57;0.60;;;0.60;;
16654;SDS011;8441;51.344;7.022;2023-02-28T05:58:24;0.70;;;0.70;;
16654;SDS011;8441;51.344;7.022;2023-02-28T06:00:55;0.60;;;0.60;;
16654;SDS011;8441;51.344;7.022;2023-02-28T06:03:23;0.67;;;0.67;;
16654;SDS011;8441;51.344;7.022;2023-02-28T06:05:50;0.80;;;0.80;;
16654;SDS011;8441;51.344;7.022;2023-02-28T06:08:18;0.70;;;0.70;;
16654;SDS011;8441;51.344;7.022;2023-02-28T06:10:46;0.60;;;0.60;;
16654;SDS011;8441;51.344;7.022;2023-02-28T06:13:14;0.70;;;0.70;;
16654;SDS011;8441;51.344;7.022;2023-02-28T06:15:41;0.70;;;0.70;;
16654;SDS011;8441;51.344;7.022;2023-02-28T06:18:08;0.60;;;0.60;;
16654;SDS011;8441;51.344;7.022;2023-02-28T06:20:35;0.63;;;0.63;;
16654;SDS011;8441;51.344;7.022;2023-02-28T06:23:02;0.70;;;0.70;;
16654;SDS011;8441;51.344;7.022;2023-02-28T06:25:30;0.80;;;0.80;;
16654;SDS011;8441;51.344;7.022;2023-02-28T06:27:58;0.60;;;0.60;;
16654;SDS011;8441;51.344;7.022;2023-02-28T06:30:25;0.70;;;0.70;;
16654;SDS011;8441;51.344;7.022;2023-02-28T06:32:56;0.70;;;0.70;;
16654;SDS011;8441;51.344;7.022;2023-02-28T06:35:23;0.80;;;0.80;;
16654;SDS011;8441;51.344;7.022;2023-02-28T06:37:50;0.90;;;0.90;;
16654;SDS011;8441;51.344;7.022;2023-02-28T06:40:17;0.80;;;0.80;;
16654;SDS011;8441;51.344;7.022;2023-02-28T06:42:44;0.70;;;0.70;;
16654;SDS011;8441;51.344;7.022;2023-02-28T06:45:13;0.70;;;0.70;;
16654;SDS011;8441;51.344;7.022;2023-02-28T06:47:40;0.60;;;0.60;;
16654;SDS011;8441;51.344;7.022;2023-02-28T06:50:09;0.67;;;0.67;;
16654;SDS011;8441;51.344;7.022;2023-02-28T06:52:37;0.70;;;0.70;;
16654;SDS011;8441;51.344;7.022;2023-02-28T06:55:05;0.70;;;0.70;;
16654;SDS011;8441;51.344;7.022;2023-02-28T06:57:34;0.60;;;0.60;;
16654;SDS011;8441;51.344;7.022;2023-02-28T07:00:03;0.60;;;0.60;;
16654;SDS011;8441;51.344;7.022;2023-02-28T07:02:34;0.70;;;0.70;;
16654;SDS011;8441;51.344;7.022;2023-02-28T07:05:01;0.60;;;0.60;;
16654;SDS011;8441;51.344;7.022;2023-02-28T07:07:28;0.70;;;0.70;;
16654;SDS011;8441;51.344;7.022;2023-02-28T07:09:55;0.50;;;0.50;;
16654;SDS011;8441;51.344;7.022;2023-02-28T07:12:23;0.60;;;0.60;;
16654;SDS011;8441;51.344;7.022;2023-02-28T07:14:50;0.70;;;0.70;;
16654;SDS011;8441;51.344;7.022;2023-02-28T07:17:17;0.57;;;0.57;;
16654;SDS011;8441;51.344;7.022;2023-02-28T07:19:45;0.70;;;0.70;;
16654;SDS011;8441;51.344;7.022;2023-02-28T07:22:13;0.70;;;0.70;;
16654;SDS011;8441;51.344;7.022;2023-02-28T07:24:40;0.60;;;0.60;;
16654;SDS011;8441;51.344;7.022;2023-02-28T07:27:07;0.60;;;0.60;;
16654;SDS011;8441;51.344;7.022;2023-02-28T07:29:34;0.70;;;0.70;;
16654;SDS011;8441;51.344;7.022;2023-02-28T07:32:02;0.60;;;0.60;;
16654;SDS011;8441;51.344;7.022;2023-02-28T07:34:29;0.70;;;0.70;;
16654;SDS011;8441;51.344;7.022;2023-02-28T07:36:58;0.60;;;0.60;;
16654;SDS011;8441;51.344;7.022;2023-02-28T07:39:28;0.60;;;0.60;;
16654;SDS011;8441;51.344;7.022;2023-02-28T07:41:55;0.67;;;0.67;;
16654;SDS011;8441;51.344;7.022;2023-02-28T07:44:23;0.60;;;0.60;;
16654;SDS011;8441;51.344;7.022;2023-02-28T07:46:50;0.60;;;0.60;;
16654;SDS011;8441;51.344;7.022;2023-02-28T07:49:17;0.63;;;0.63;;
16654;SDS011;8441;51.344;7.022;2023-02-28T07:51:45;0.70;;;0.70;;
16654;SDS011;8441;51.344;7.022;2023-02-28T07:54:13;0.80;;;0.80;;
16654;SDS011;8441;51.344;7.022;2023-02-28T07:56:40;0.50;;;0.50;;
16654;SDS011;8441;51.344;7.022;2023-02-28T07:59:07;0.60;;;0.60;;
16654;SDS011;8441;51.344;7.022;2023-02-28T08:01:34;0.70;;;0.70;;
16654;SDS011;8441;51.344;7.022;2023-02-28T08:04:01;0.57;;;0.57;;
16654;SDS011;8441;51.344;7.022;2023-02-28T08:06:28;0.70;;;0.70;;
16654;SDS011;8441;51.344;7.022;2023-02-28T08:08:56;0.60;;;0.60;;
16654;SDS011;8441;51.344;7.022;2023-02-28T08:11:24;0.50;;;0.50;;
16654;SDS011;8441;51.344;7.022;2023-02-28T08:13:51;0.40;;;0.40;;
16654;SDS011;8441;51.344;7.022;2023-02-28T08:16:18;0.60;;;0.60;;
16654;SDS011;8441;51.344;7.022;2023-02-28T08:18:47;0.50;;;0.50;;
16654;SDS011;8441;51.344;7.022;2023-02-28T08:21:15;0.60;;;0.60;;
16654;SDS011;8441;51.344;7.022;2023-02-28T08:23:42;0.60;;;0.60;;
16654;SDS011;8441;51.344;7.022;2023-02-28T08:26:10;0.60;;;0.60;;
16654;SDS011;8441;51.344;7.022;2023-02-28T08:28:38;0.60;;;0.60;;
16654;SDS011;8441;51.344;7.022;2023-02-28T08:31:09;0.60;;;0.60;;
16654;SDS011;8441;51.344;7.022;2023-02-28T08:33:38;0.60;;;0.60;;
16654;SDS011;8441;51.344;7.022;2023-02-28T08:36:06;0.60;;;0.60;;
16654;SDS011;8441;51.344;7.022;2023-02-28T08:38:35;0.53;;;0.53;;
16654;SDS011;8441;51.344;7.022;2023-02-28T08:41:04;0.40;;;0.40;;
16654;SDS011;8441;51.344;7.022;2023-02-28T08:43:34;0.50;;;0.50;;
16654;SDS011;8441;51.344;7.022;2023-02-28T08:46:03;0.60;;;0.60;;
16654;SDS011;8441;51.344;7.022;2023-02-28T08:48:31;0.60;;;0.60;;
16654;SDS011;8441;51.344;7.022;2023-02-28T08:51:00;0.53;;;0.53;;
16654;SDS011;8441;51.344;7.022;2023-02-28T08:53:28;0.50;;;0.50;;
16654;SDS011;8441;51.344;7.022;2023-02-28T08:55:57;0.60;;;0.60;;
16654;SDS011;8441;51.344;7.022;2023-02-28T08:58:25;0.60;;;0.60;;
16654;SDS011;8441;51.344;7.022;2023-02-28T09:00:52;0.60;;;0.60;;
16654;SDS011;8441;51.344;7.022;2023-02-28T09:03:21;0.50;;;0.50;;
16654;SDS011;8441;51.344;7.022;2023-02-28T09:05:53;0.40;;;0.40;;
16654;SDS011;8441;51.344;7.022;2023-02-28T09:08:21;0.53;;;0.53;;
16654;SDS011;8441;51.344;7.022;2023-02-28T09:10:49;0.50;;;0.50;;
16654;SDS011;8441;51.344;7.022;2023-02-28T09:13:17;0.50;;;0.50;;
16654;SDS011;8441;51.344;7.022;2023-02-28T09:15:44;0.60;;;0.60;;
16654;SDS011;8441;51.344;7.022;2023-02-28T09:18:12;0.53;;;0.53;;
16654;SDS011;8441;51.344;7.022;2023-02-28T09:27:24;0.50;;;0.50;;
16654;SDS011;8441;51.344;7.022;2023-02-28T09:29:51;0.60;;;0.60;;
16654;SDS011;8441;51.344;7.022;2023-02-28T09:32:18;0.53;;;0.53;;
16654;SDS011;8441;51.344;7.022;2023-02-28T09:34:45;0.57;;;0.57;;
16654;SDS011;8441;51.344;7.022;2023-02-28T09:37:13;0.47;;;0.47;;
16654;SDS011;8441;51.344;7.022;2023-02-28T09:39:40;0.50;;;0.50;;
16654;SDS011;8441;51.344;7.022;2023-02-28T09:42:11;0.50;;;0.50;;
16654;SDS011;8441;51.344;7.022;2023-02-28T09:44:51;0.60;;;0.60;;
16654;SDS011;8441;51.344;7.022;2023-02-28T09:47:21;0.50;;;0.50;;
16654;SDS011;8441;51.344;7.022;2023-02-28T09:49:55;0.50;;;0.50;;
16654;SDS011;8441;51.344;7.022;2023-02-28T09:52:27;0.37;;;0.37;;
16654;SDS011;8441;51.344;7.022;2023-02-28T09:54:58;0.60;;;0.60;;
16654;SDS011;8441;51.344;7.022;2023-02-28T09:57:30;0.50;;;0.50;;
16654;SDS011;8441;51.344;7.022;2023-02-28T10:00:05;0.50;;;0.50;;
16654;SDS011;8441;51.344;7.022;2023-02-28T10:02:46;0.50;;;0.50;;
16654;SDS011;8441;51.344;7.022;2023-02-28T10:05:24;0.40;;;0.40;;
16654;SDS011;8441;51.344;7.022;2023-02-28T10:08:00;0.50;;;0.50;;
16654;SDS011;8441;51.344;7.022;2023-02-28T10:10:35;0.40;;;0.40;;
16654;SDS011;8441;51.344;7.022;2023-02-28T10:13:06;0.40;;;0.40;;
16654;SDS011;8441;51.344;7.022;2023-02-28T10:15:43;0.40;;;0.40;;
16654;SDS011;8441;51.344;7.022;2023-02-28T10:18:13;0.50;;;0.50;;
16654;SDS011;8441;51.344;7.022;2023-02-28T10:20:45;0.50;;;0.50;;
16654;SDS011;8441;51.344;7.022;2023-02-28T10:23:15;0.40;;;0.40;;
16654;SDS011;8441;51.344;7.022;2023-02-28T10:25:47;0.50;;;0.50;;
16654;SDS011;8441;51.344;7.022;2023-02-28T10:28:19;0.50;;;0.50;;
16654;SDS011;8441;51.344;7.022;2023-02-28T10:30:48;0.40;;;0.40;;
16654;SDS011;8441;51.344;7.022;2023-02-28T10:33:18;0.40;;;0.40;;
16654;SDS011;8441;51.344;7.022;2023-02-28T10:35:48;0.50;;;0.50;;
16654;SDS011;8441;51.344;7.022;2023-02-28T10:38:16;0.40;;;0.40;;
16654;SDS011;8441;51.344;7.022;2023-02-28T10:40:46;0.50;;;0.50;;
16654;SDS011;8441;51.344;7.022;2023-02-28T10:43:20;0.40;;;0.40;;
16654;SDS011;8441;51.344;7.022;2023-02-28T10:45:58;0.40;;;0.40;;
16654;SDS011;8441;51.344;7.022;2023-02-28T10:48:36;0.40;;;0.40;;
16654;SDS011;8441;51.344;7.022;2023-02-28T10:51:04;0.43;;;0.43;;
16654;SDS011;8441;51.344;7.022;2023-02-28T10:53:34;0.40;;;0.40;;
16654;SDS011;8441;51.344;7.022;2023-02-28T10:56:05;0.43;;;0.43;;
16654;SDS011;8441;51.344;7.022;2023-02-28T10:58:46;0.50;;;0.50;;
16654;SDS011;8441;51.344;7.022;2023-02-28T11:01:18;0.40;;;0.40;;
16654;SDS011;8441;51.344;7.022;2023-02-28T11:03:47;0.40;;;0.40;;
16654;SDS011;8441;51.344;7.022;2023-02-28T11:06:16;0.50;;;0.50;;
16654;SDS011;8441;51.344;7.022;2023-02-28T11:08:49;0.40;;;0.40;;
16654;SDS011;8441;51.344;7.022;2023-02-28T11:11:18;0.40;;;0.40;;
16654;SDS011;8441;51.344;7.022;2023-02-28T11:13:49;0.50;;;0.50;;
16654;SDS011;8441;51.344;7.022;2023-02-28T11:16:20;0.60;;;0.60;;
16654;SDS011;8441;51.344;7.022;2023-02-28T11:18:48;0.40;;;0.40;;
16654;SDS011;8441;51.344;7.022;2023-02-28T11:21:19;0.57;;;0.57;;
16654;SDS011;8441;51.344;7.022;2023-02-28T11:23:50;0.40;;;0.40;;
16654;SDS011;8441;51.344;7.022;2023-02-28T11:26:38;0.50;;;0.50;;
16654;SDS011;8441;51.344;7.022;2023-02-28T11:29:17;0.43;;;0.43;;
16654;SDS011;8441;51.344;7.022;2023-02-28T11:34:34;0.40;;;0.40;;
16654;SDS011;8441;51.344;7.022;2023-02-28T11:37:03;0.50;;;0.50;;
16654;SDS011;8441;51.344;7.022;2023-02-28T11:39:35;0.40;;;0.40;;
16654;SDS011;8441;51.344;7.022;2023-02-28T11:42:07;0.60;;;0.60;;
16654;SDS011;8441;51.344;7.022;2023-02-28T11:44:57;0.40;;;0.40;;
16654;SDS011;8441;51.344;7.022;2023-02-28T11:47:37;0.40;;;0.40;;
16654;SDS011;8441;51.344;7.022;2023-02-28T11:50:16;0.50;;;0.50;;
16654;SDS011;8441;51.344;7.022;2023-02-28T11:52:53;0.50;;;0.50;;
16654;SDS011;8441;51.344;7.022;2023-02-28T11:55:24;0.32;;;0.32;;
16654;SDS011;8441;51.344;7.022;2023-02-28T11:58:00;0.40;;;0.40;;
16654;SDS011;8441;51.344;7.022;2023-02-28T12:00:49;0.43;;;0.43;;
16654;SDS011;8441;51.344;7.022;2023-02-28T12:03:39;0.50;;;0.50;;
16654;SDS011;8441;51.344;7.022;2023-02-28T12:06:18;0.40;;;0.40;;
16654;SDS011;8441;51.344;7.022;2023-02-28T12:08:53;0.40;;;0.40;;
16654;SDS011;8441;51.344;7.022;2023-02-28T12:11:31;0.30;;;0.30;;
16654;SDS011;8441;51.344;7.022;2023-02-28T12:14:14;0.45;;;0.45;;
16654;SDS011;8441;51.344;7.022;2023-02-28T12:16:57;0.50;;;0.50;;
16654;SDS011;8441;51.344;7.022;2023-02-28T12:19:34;0.40;;;0.40;;
16654;SDS011;8441;51.344;7.022;2023-02-28T12:27:48;0.45;;;0.45;;
16654;SDS011;8441;51.344;7.022;2023-02-28T12:30:19;0.40;;;0.40;;
16654;SDS011;8441;51.344;7.022;2023-02-28T12:32:51;0.40;;;0.40;;
16654;SDS011;8441;51.344;7.022;2023-02-28T12:35:23;0.38;;;0.38;;
16654;SDS011;8441;51.344;7.022;2023-02-28T12:37:55;0.30;;;0.30;;
16654;SDS011;8441;51.344;7.022;2023-02-28T12:40:32;0.40;;;0.40;;
16654;SDS011;8441;51.344;7.022;2023-02-28T12:43:08;0.40;;;0.40;;
16654;SDS011;8441;51.344;7.022;2023-02-28T12:45:40;0.50;;;0.50;;
16654;SDS011;8441;51.344;7.022;2023-02-28T12:48:13;0.40;;;0.40;;
16654;SDS011;8441;51.344;7.022;2023-02-28T12:50:46;0.40;;;0.40;;
16654;SDS011;8441;51.344;7.022;2023-02-28T12:53:15;0.30;;;0.30;;
16654;SDS011;8441;51.344;7.022;2023-02-28T12:55:48;0.40;;;0.40;;
16654;SDS011;8441;51.344;7.022;2023-02-28T12:58:25;0.30;;;0.30;;
16654;SDS011;8441;51.344;7.022;2023-02-28T13:01:04;0.50;;;0.50;;
16654;SDS011;8441;51.344;7.022;2023-02-28T13:04:02;0.30;;;0.30;;
16654;SDS011;8441;51.344;7.022;2023-02-28T13:06:58;0.50;;;0.50;;
16654;SDS011;8441;51.344;7.022;2023-02-28T13:09:34;0.50;;;0.50;;
16654;SDS011;8441;51.344;7.022;2023-02-28T13:12:04;0.40;;;0.40;;
16654;SDS011;8441;51.344;7.022;2023-02-28T13:14:40;0.40;;;0.40;;
16654;SDS011;8441;51.344;7.022;2023-02-28T13:17:10;0.47;;;0.47;;
16654;SDS011;8441;51.344;7.022;2023-02-28T13:19:40;0.40;;;0.40;;
16654;SDS011;8441;51.344;7.022;2023-02-28T13:22:18;0.30;;;0.30;;
16654;SDS011;8441;51.344;7.022;2023-02-28T13:24:48;0.40;;;0.40;;
16654;SDS011;8441;51.344;7.022;2023-02-28T13:30:00;0.32;;;0.32;;
16654;SDS011;8441;51.344;7.022;2023-02-28T13:32:54;0.40;;;0.40;;
16654;SDS011;8441;51.344;7.022;2023-02-28T13:36:10;0.40;;;0.40;;
16654;SDS011;8441;51.344;7.022;2023-02-28T13:38:56;0.40;;;0.40;;
16654;SDS011;8441;51.344;7.022;2023-02-28T13:41:41;0.40;;;0.40;;
16654;SDS011;8441;51.344;7.022;2023-02-28T13:44:15;0.40;;;0.40;;
16654;SDS011;8441;51.344;7.022;2023-02-28T13:50:19;0.40;;;0.40;;
16654;SDS011;8441;51.344;7.022;2023-02-28T13:52:52;0.40;;;0.40;;
16654;SDS011;8441;51.344;7.022;2023-02-28T13:55:43;0.40;;;0.40;;
16654;SDS011;8441;51.344;7.022;2023-02-28T13:58:20;0.40;;;0.40;;
16654;SDS011;8441;51.344;7.022;2023-02-28T14:06:55;0.40;;;0.40;;
16654;SDS011;8441;51.344;7.022;2023-02-28T14:09:25;0.30;;;0.30;;
16654;SDS011;8441;51.344;7.022;2023-02-28T14:11:56;0.30;;;0.30;;
16654;SDS011;8441;51.344;7.022;2023-02-28T14:14:54;0.30;;;0.30;;
16654;SDS011;8441;51.344;7.022;2023-02-28T14:17:24;0.40;;;0.40;;
16654;SDS011;8441;51.344;7.022;2023-02-28T14:19:52;0.25;;;0.25;;
16654;SDS011;8441;51.344;7.022;2023-02-28T14:22:26;0.38;;;0.38;;
16654;SDS011;8441;51.344;7.022;2023-02-28T14:25:15;0.40;;;0.40;;
16654;SDS011;8441;51.344;7.022;2023-02-28T14:27:50;0.40;;;0.40;;
16654;SDS011;8441;51.344;7.022;2023-02-28T14:33:21;0.40;;;0.40;;
16654;SDS011;8441;51.344;7.022;2023-02-28T14:36:10;0.40;;;0.40;;
16654;SDS011;8441;51.344;7.022;2023-02-28T14:38:45;0.50;;;0.50;;
16654;SDS011;8441;51.344;7.022;2023-02-28T14:41:17;0.40;;;0.40;;
16654;SDS011;8441;51.344;7.022;2023-02-28T14:43:50;0.40;;;0.40;;
16654;SDS011;8441;51.344;7.022;2023-02-28T14:46:19;0.40;;;0.40;;
16654;SDS011;8441;51.344;7.022;2023-02-28T14:48:47;0.40;;;0.40;;
16654;SDS011;8441;51.344;7.022;2023-02-28T14:51:18;0.40;;;0.40;;
16654;SDS011;8441;51.344;7.022;2023-02-28T14:53:48;0.40;;;0.40;;
16654;SDS011;8441;51.344;7.022;2023-02-28T14:56:22;0.40;;;0.40;;
16654;SDS011;8441;51.344;7.022;2023-02-28T14:58:53;0.40;;;0.40;;
16654;SDS011;8441;51.344;7.022;2023-02-28T15:01:22;0.35;;;0.35;;
16654;SDS011;8441;51.344;7.022;2023-02-28T15:03:56;0.40;;;0.40;;
16654;SDS011;8441;51.344;7.022;2023-02-28T15:06:26;0.50;;;0.50;;
16654;SDS011;8441;51.344;7.022;2023-02-28T15:11:45;0.30;;;0.30;;
16654;SDS011;8441;51.344;7.022;2023-02-28T15:14:17;0.30;;;0.30;;
16654;SDS011;8441;51.344;7.022;2023-02-28T15:16:46;0.50;;;0.50;;
16654;SDS011;8441;51.344;7.022;2023-02-28T15:19:18;0.40;;;0.40;;
16654;SDS011;8441;51.344;7.022;2023-02-28T15:21:48;0.40;;;0.40;;
16654;SDS011;8441;51.344;7.022;2023-02-28T15:24:18;0.40;;;0.40;;
16654;SDS011;8441;51.344;7.022;2023-02-28T15:26:50;0.50;;;0.50;;
16654;SDS011;8441;51.344;7.022;2023-02-28T15:29:23;0.40;;;0.40;;
16654;SDS011;8441;51.344;7.022;2023-02-28T15:31:55;0.30;;;0.30;;
16654;SDS011;8441;51.344;7.022;2023-02-28T15:34:26;0.40;;;0.40;;
16654;SDS011;8441;51.344;7.022;2023-02-28T15:36:59;0.47;;;0.47;;
16654;SDS011;8441;51.344;7.022;2023-02-28T15:39:27;0.30;;;0.30;;
16654;SDS011;8441;51.344;7.022;2023-02-28T15:42:09;0.30;;;0.30;;
16654;SDS011;8441;51.344;7.022;2023-02-28T15:44:39;0.40;;;0.40;;
16654;SDS011;8441;51.344;7.022;2023-02-28T15:47:06;0.45;;;0.45;;
16654;SDS011;8441;51.344;7.022;2023-02-28T15:49:45;0.40;;;0.40;;
16654;SDS011;8441;51.344;7.022;2023-02-28T15:52:16;0.40;;;0.40;;
16654;SDS011;8441;51.344;7.022;2023-02-28T15:54:45;0.40;;;0.40;;
16654;SDS011;8441;51.344;7.022;2023-02-28T15:57:13;0.40;;;0.40;;
16654;SDS011;8441;51.344;7.022;2023-02-28T15:59:50;0.50;;;0.50;;
16654;SDS011;8441;51.344;7.022;2023-02-28T16:02:19;0.47;;;0.47;;
16654;SDS011;8441;51.344;7.022;2023-02-28T16:04:55;0.40;;;0.40;;
16654;SDS011;8441;51.344;7.022;2023-02-28T16:07:44;0.43;;;0.43;;
16654;SDS011;8441;51.344;7.022;2023-02-28T16:10:12;0.40;;;0.40;;